sensor_id;sensor_type;location;lat;lon;timestamp;pressure;altitude;pressure_sealevel;temperature;humidity
51299;BME280;37382;45.192;9.790;2023-05-25T04:08:08;101243.41;;;18.43;100.00
51299;BME280;37382;45.192;9.790;2023-05-25T04:10:37;101241.63;;;18.49;100.00
51299;BME280;37382;45.192;9.790;2023-05-25T04:13:04;101243.19;;;18.57;100.00
51299;BME280;37382;45.192;9.790;2023-05-25T04:15:32;101245.44;;;18.48;100.00
51299;BME280;37382;45.192;9.790;2023-05-25T04:18:05;101241.41;;;18.08;100.00
51299;BME280;37382;45.192;9.790;2023-05-25T04:20:34;101232.34;;;18.08;100.00
51299;BME280;37382;45.192;9.790;2023-05-25T04:23:02;101246.59;;;17.86;100.00
51299;BME280;37382;45.192;9.790;2023-05-25T04:25:30;101241.19;;;18.10;100.00
51299;BME280;37382;45.192;9.790;2023-05-25T04:27:58;101245.91;;;18.21;100.00
51299;BME280;37382;45.192;9.790;2023-05-25T04:31:05;101252.75;;;18.30;100.00
51299;BME280;37382;45.192;9.790;2023-05-25T04:33:38;101250.22;;;18.29;100.00
51299;BME280;37382;45.192;9.790;2023-05-25T04:36:17;101254.28;;;18.26;100.00
51299;BME280;37382;45.192;9.790;2023-05-25T04:38:44;101259.75;;;18.14;100.00
51299;BME280;37382;45.192;9.790;2023-05-25T04:41:14;101267.06;;;18.09;100.00
51299;BME280;37382;45.192;9.790;2023-05-25T04:43:46;101261.81;;;18.31;100.00
51299;BME280;37382;45.192;9.790;2023-05-25T04:46:31;101263.59;;;18.25;100.00
51299;BME280;37382;45.192;9.790;2023-05-25T04:49:03;101275.50;;;18.49;100.00
51299;BME280;37382;45.192;9.790;2023-05-25T04:51:31;101272.28;;;18.53;100.00
51299;BME280;37382;45.192;9.790;2023-05-25T04:53:59;101274.69;;;18.61;100.00
51299;BME280;37382;45.192;9.790;2023-05-25T04:56:27;101274.84;;;18.90;100.00
51299;BME280;37382;45.192;9.790;2023-05-25T04:58:57;101277.00;;;18.88;100.00
51299;BME280;37382;45.192;9.790;2023-05-25T05:01:24;101281.91;;;18.97;100.00
51299;BME280;37382;45.192;9.790;2023-05-25T05:03:55;101282.88;;;18.91;100.00
51299;BME280;37382;45.192;9.790;2023-05-25T05:06:23;101284.69;;;18.97;100.00
51299;BME280;37382;45.192;9.790;2023-05-25T05:08:52;101289.69;;;19.12;100.00
51299;BME280;37382;45.192;9.790;2023-05-25T05:11:20;101288.25;;;18.98;100.00
51299;BME280;37382;45.192;9.790;2023-05-25T05:13:47;101295.09;;;19.19;100.00
51299;BME280;37382;45.192;9.790;2023-05-25T05:16:15;101305.00;;;19.32;100.00
51299;BME280;37382;45.192;9.790;2023-05-25T05:18:44;101303.28;;;19.54;100.00
51299;BME280;37382;45.192;9.790;2023-05-25T05:21:11;101299.13;;;19.40;100.00
51299;BME280;37382;45.192;9.790;2023-05-25T05:23:41;101312.47;;;19.19;100.00
51299;BME280;37382;45.192;9.790;2023-05-25T05:26:09;101303.44;;;19.36;100.00
51299;BME280;37382;45.192;9.790;2023-05-25T05:28:38;101307.91;;;19.25;100.00
51299;BME280;37382;45.192;9.790;2023-05-25T05:31:05;101307.66;;;19.38;100.00
51299;BME280;37382;45.192;9.790;2023-05-25T05:33:34;101315.09;;;19.26;100.00
51299;BME280;37382;45.192;9.790;2023-05-25T05:36:02;101322.66;;;19.19;100.00
51299;BME280;37382;45.192;9.790;2023-05-25T05:38:31;101323.97;;;19.16;100.00
51299;BME280;37382;45.192;9.790;2023-05-25T05:40:59;101326.84;;;19.33;100.00
51299;BME280;37382;45.192;9.790;2023-05-25T05:43:29;101330.22;;;19.24;100.00
51299;BME280;37382;45.192;9.790;2023-05-25T05:45:57;101331.53;;;19.33;100.00
51299;BME280;37382;45.192;9.790;2023-05-25T05:48:24;101334.19;;;19.28;100.00
51299;BME280;37382;45.192;9.790;2023-05-25T05:50:52;101349.47;;;19.47;100.00
51299;BME280;37382;45.192;9.790;2023-05-25T05:53:20;101339.88;;;19.62;100.00
51299;BME280;37382;45.192;9.790;2023-05-25T05:55:47;101336.13;;;19.80;100.00
51299;BME280;37382;45.192;9.790;2023-05-25T05:58:23;101342.72;;;19.67;100.00
51299;BME280;37382;45.192;9.790;2023-05-25T06:00:53;101347.66;;;19.65;100.00
51299;BME280;37382;45.192;9.790;2023-05-25T06:03:22;101348.16;;;19.62;100.00
51299;BME280;37382;45.192;9.790;2023-05-25T06:05:50;101351.41;;;19.59;100.00
51299;BME280;37382;45.192;9.790;2023-05-25T06:08:18;101351.03;;;19.55;100.00
51299;BME280;37382;45.192;9.790;2023-05-25T06:10:45;101352.78;;;19.73;100.00
51299;BME280;37382;45.192;9.790;2023-05-25T06:13:13;101349.75;;;19.98;100.00
51299;BME280;37382;45.192;9.790;2023-05-25T06:15:41;101360.34;;;19.89;100.00
51299;BME280;37382;45.192;9.790;2023-05-25T06:18:14;101360.00;;;19.74;100.00
51299;BME280;37382;45.192;9.790;2023-05-25T06:20:42;101361.16;;;19.90;100.00
51299;BME280;37382;45.192;9.790;2023-05-25T06:23:10;101361.81;;;19.80;100.00
51299;BME280;37382;45.192;9.790;2023-05-25T06:25:40;101364.78;;;19.90;100.00
51299;BME280;37382;45.192;9.790;2023-05-25T06:28:08;101375.84;;;20.19;100.00
51299;BME280;37382;45.192;9.790;2023-05-25T06:30:36;101374.91;;;20.14;100.00
51299;BME280;37382;45.192;9.790;2023-05-25T06:33:05;101371.06;;;20.60;100.00
51299;BME280;37382;45.192;9.790;2023-05-25T06:35:35;101374.91;;;20.59;100.00
51299;BME280;37382;45.192;9.790;2023-05-25T06:38:03;101383.28;;;20.65;100.00
51299;BME280;37382;45.192;9.790;2023-05-25T06:40:30;101381.16;;;21.01;100.00
51299;BME280;37382;45.192;9.790;2023-05-25T06:42:58;101386.75;;;21.06;100.00
51299;BME280;37382;45.192;9.790;2023-05-25T06:45:40;101395.31;;;21.04;100.00
51299;BME280;37382;45.192;9.790;2023-05-25T06:48:08;101387.53;;;21.18;100.00
51299;BME280;37382;45.192;9.790;2023-05-25T06:50:36;101392.91;;;20.74;100.00
51299;BME280;37382;45.192;9.790;2023-05-25T06:53:04;101400.25;;;20.68;100.00
51299;BME280;37382;45.192;9.790;2023-05-25T06:55:31;101404.56;;;20.64;100.00
51299;BME280;37382;45.192;9.790;2023-05-25T06:57:58;101409.44;;;20.28;100.00
51299;BME280;37382;45.192;9.790;2023-05-25T07:00:27;101413.00;;;20.40;100.00
51299;BME280;37382;45.192;9.790;2023-05-25T07:02:54;101405.41;;;20.65;100.00
51299;BME280;37382;45.192;9.790;2023-05-25T07:05:23;101407.75;;;21.02;100.00
51299;BME280;37382;45.192;9.790;2023-05-25T07:07:50;101404.78;;;21.25;100.00
51299;BME280;37382;45.192;9.790;2023-05-25T07:10:18;101408.28;;;21.38;100.00
51299;BME280;37382;45.192;9.790;2023-05-25T07:12:46;101417.38;;;21.50;100.00
51299;BME280;37382;45.192;9.790;2023-05-25T07:15:13;101415.50;;;21.39;100.00
51299;BME280;37382;45.192;9.790;2023-05-25T07:17:42;101417.97;;;21.18;100.00
51299;BME280;37382;45.192;9.790;2023-05-25T07:20:10;101421.81;;;21.17;100.00
51299;BME280;37382;45.192;9.790;2023-05-25T07:22:39;101417.09;;;21.35;100.00
51299;BME280;37382;45.192;9.790;2023-05-25T07:25:07;101421.44;;;21.47;100.00
51299;BME280;37382;45.192;9.790;2023-05-25T07:27:35;101423.44;;;21.69;100.00
51299;BME280;37382;45.192;9.790;2023-05-25T07:30:03;101428.16;;;21.91;100.00
51299;BME280;37382;45.192;9.790;2023-05-25T07:32:32;101426.81;;;21.93;100.00
51299;BME280;37382;45.192;9.790;2023-05-25T07:34:59;101433.94;;;21.89;100.00
51299;BME280;37382;45.192;9.790;2023-05-25T07:37:27;101425.50;;;21.79;100.00
51299;BME280;37382;45.192;9.790;2023-05-25T07:39:54;101440.63;;;21.71;100.00
51299;BME280;37382;45.192;9.790;2023-05-25T07:42:22;101432.88;;;21.90;100.00
51299;BME280;37382;45.192;9.790;2023-05-25T07:44:49;101441.31;;;22.00;100.00
51299;BME280;37382;45.192;9.790;2023-05-25T07:47:17;101432.22;;;22.05;100.00
51299;BME280;37382;45.192;9.790;2023-05-25T07:49:44;101439.94;;;21.81;100.00
51299;BME280;37382;45.192;9.790;2023-05-25T07:52:12;101441.50;;;21.94;100.00
51299;BME280;37382;45.192;9.790;2023-05-25T07:54:40;101441.66;;;21.65;100.00
51299;BME280;37382;45.192;9.790;2023-05-25T07:57:07;101443.44;;;21.54;100.00
51299;BME280;37382;45.192;9.790;2023-05-25T07:59:35;101446.56;;;21.58;100.00
51299;BME280;37382;45.192;9.790;2023-05-25T08:02:03;101448.44;;;21.74;100.00
51299;BME280;37382;45.192;9.790;2023-05-25T08:04:31;101448.47;;;21.96;100.00
51299;BME280;37382;45.192;9.790;2023-05-25T08:07:00;101455.00;;;21.68;100.00
51299;BME280;37382;45.192;9.790;2023-05-25T08:09:27;101453.91;;;21.69;100.00
51299;BME280;37382;45.192;9.790;2023-05-25T08:11:55;101455.59;;;21.70;100.00
51299;BME280;37382;45.192;9.790;2023-05-25T08:14:42;101458.06;;;21.89;100.00
51299;BME280;37382;45.192;9.790;2023-05-25T08:17:09;101458.91;;;22.11;100.00
51299;BME280;37382;45.192;9.790;2023-05-25T08:19:37;101465.41;;;22.44;100.00
51299;BME280;37382;45.192;9.790;2023-05-25T08:22:04;101463.16;;;22.41;100.00
51299;BME280;37382;45.192;9.790;2023-05-25T08:24:32;101472.25;;;22.36;100.00
51299;BME280;37382;45.192;9.790;2023-05-25T08:26:59;101477.88;;;22.42;100.00
51299;BME280;37382;45.192;9.790;2023-05-25T08:29:28;101474.38;;;22.29;100.00
51299;BME280;37382;45.192;9.790;2023-05-25T08:31:56;101477.25;;;22.62;100.00
51299;BME280;37382;45.192;9.790;2023-05-25T08:34:23;101474.88;;;22.70;100.00
51299;BME280;37382;45.192;9.790;2023-05-25T08:36:51;101484.59;;;22.29;100.00
51299;BME280;37382;45.192;9.790;2023-05-25T08:39:19;101488.47;;;21.83;100.00
51299;BME280;37382;45.192;9.790;2023-05-25T08:41:48;101483.06;;;22.16;100.00
51299;BME280;37382;45.192;9.790;2023-05-25T08:44:17;101486.25;;;22.25;100.00
51299;BME280;37382;45.192;9.790;2023-05-25T08:46:46;101483.34;;;22.14;100.00
51299;BME280;37382;45.192;9.790;2023-05-25T08:49:16;101490.28;;;22.17;100.00
51299;BME280;37382;45.192;9.790;2023-05-25T08:51:47;101488.16;;;22.24;100.00
51299;BME280;37382;45.192;9.790;2023-05-25T08:54:18;101488.63;;;22.60;100.00
51299;BME280;37382;45.192;9.790;2023-05-25T08:56:52;101493.38;;;22.65;100.00
51299;BME280;37382;45.192;9.790;2023-05-25T09:02:05;101491.44;;;22.65;100.00
51299;BME280;37382;45.192;9.790;2023-05-25T09:04:35;101501.06;;;22.58;100.00
51299;BME280;37382;45.192;9.790;2023-05-25T09:07:03;101497.59;;;22.45;100.00
51299;BME280;37382;45.192;9.790;2023-05-25T09:09:38;101503.53;;;22.54;100.00
51299;BME280;37382;45.192;9.790;2023-05-25T09:12:06;101497.47;;;22.84;100.00
51299;BME280;37382;45.192;9.790;2023-05-25T09:14:34;101504.44;;;23.14;100.00
51299;BME280;37382;45.192;9.790;2023-05-25T09:17:04;101510.03;;;23.19;100.00
51299;BME280;37382;45.192;9.790;2023-05-25T09:19:34;101510.19;;;23.40;100.00
51299;BME280;37382;45.192;9.790;2023-05-25T09:22:03;101517.56;;;23.24;100.00
51299;BME280;37382;45.192;9.790;2023-05-25T09:24:43;101516.25;;;22.77;100.00
51299;BME280;37382;45.192;9.790;2023-05-25T09:27:22;101524.97;;;22.64;100.00
51299;BME280;37382;45.192;9.790;2023-05-25T09:29:50;101524.81;;;22.98;100.00
51299;BME280;37382;45.192;9.790;2023-05-25T09:32:18;101524.38;;;23.11;100.00
51299;BME280;37382;45.192;9.790;2023-05-25T09:34:46;101523.69;;;23.26;100.00
51299;BME280;37382;45.192;9.790;2023-05-25T09:37:15;101523.69;;;23.26;100.00
51299;BME280;37382;45.192;9.790;2023-05-25T09:39:45;101525.53;;;23.15;100.00
51299;BME280;37382;45.192;9.790;2023-05-25T09:42:16;101537.16;;;23.12;100.00
51299;BME280;37382;45.192;9.790;2023-05-25T09:44:44;101535.81;;;23.15;100.00
51299;BME280;37382;45.192;9.790;2023-05-25T09:47:12;101537.00;;;23.24;100.00
51299;BME280;37382;45.192;9.790;2023-05-25T09:49:40;101539.28;;;23.32;100.00
51299;BME280;37382;45.192;9.790;2023-05-25T09:52:11;101532.72;;;23.81;100.00
51299;BME280;37382;45.192;9.790;2023-05-25T09:54:38;101530.81;;;24.34;100.00
51299;BME280;37382;45.192;9.790;2023-05-25T09:57:06;101533.91;;;24.43;100.00
51299;BME280;37382;45.192;9.790;2023-05-25T09:59:34;101532.91;;;24.60;100.00
51299;BME280;37382;45.192;9.790;2023-05-25T10:02:02;101523.84;;;24.27;100.00
51299;BME280;37382;45.192;9.790;2023-05-25T10:04:30;101528.63;;;24.37;100.00
51299;BME280;37382;45.192;9.790;2023-05-25T10:06:59;101527.81;;;23.93;100.00
51299;BME280;37382;45.192;9.790;2023-05-25T10:09:28;101530.81;;;24.29;100.00
51299;BME280;37382;45.192;9.790;2023-05-25T10:11:57;101524.16;;;24.41;100.00
51299;BME280;37382;45.192;9.790;2023-05-25T10:14:27;101520.41;;;24.67;100.00
51299;BME280;37382;45.192;9.790;2023-05-25T10:16:58;101521.59;;;24.97;100.00
51299;BME280;37382;45.192;9.790;2023-05-25T10:22:07;101529.38;;;24.85;100.00
51299;BME280;37382;45.192;9.790;2023-05-25T10:27:13;101534.06;;;24.84;100.00
51299;BME280;37382;45.192;9.790;2023-05-25T10:29:58;101534.59;;;24.71;100.00
51299;BME280;37382;45.192;9.790;2023-05-25T10:32:29;101539.09;;;24.19;100.00
51299;BME280;37382;45.192;9.790;2023-05-25T10:34:59;101530.16;;;24.75;100.00
51299;BME280;37382;45.192;9.790;2023-05-25T10:37:28;101539.69;;;25.26;100.00
51299;BME280;37382;45.192;9.790;2023-05-25T10:39:58;101534.41;;;25.19;100.00
51299;BME280;37382;45.192;9.790;2023-05-25T10:42:28;101535.53;;;25.23;100.00
51299;BME280;37382;45.192;9.790;2023-05-25T10:44:56;101538.31;;;25.28;100.00
51299;BME280;37382;45.192;9.790;2023-05-25T10:47:25;101533.84;;;25.17;100.00
51299;BME280;37382;45.192;9.790;2023-05-25T10:49:57;101541.84;;;24.72;100.00
51299;BME280;37382;45.192;9.790;2023-05-25T10:52:29;101537.50;;;25.38;100.00
51299;BME280;37382;45.192;9.790;2023-05-25T10:54:59;101533.59;;;25.80;100.00
51299;BME280;37382;45.192;9.790;2023-05-25T10:57:33;101533.81;;;25.94;100.00
51299;BME280;37382;45.192;9.790;2023-05-25T11:00:03;101528.53;;;26.08;100.00
51299;BME280;37382;45.192;9.790;2023-05-25T11:02:52;101528.56;;;25.10;100.00
51299;BME280;37382;45.192;9.790;2023-05-25T11:19:13;101530.16;;;24.75;100.00
51299;BME280;37382;45.192;9.790;2023-05-25T11:21:42;101531.34;;;25.05;100.00
51299;BME280;37382;45.192;9.790;2023-05-25T11:24:12;101533.06;;;25.63;100.00
51299;BME280;37382;45.192;9.790;2023-05-25T11:26:57;101518.03;;;25.43;100.00
51299;BME280;37382;45.192;9.790;2023-05-25T11:29:30;101514.59;;;25.98;100.00
51299;BME280;37382;45.192;9.790;2023-05-25T11:31:58;101511.47;;;26.20;100.00
51299;BME280;37382;45.192;9.790;2023-05-25T11:34:27;101511.25;;;25.90;100.00
51299;BME280;37382;45.192;9.790;2023-05-25T11:36:58;101504.59;;;25.76;100.00
51299;BME280;37382;45.192;9.790;2023-05-25T11:39:30;101513.56;;;25.37;100.00
51299;BME280;37382;45.192;9.790;2023-05-25T11:42:03;101524.44;;;25.38;100.00
51299;BME280;37382;45.192;9.790;2023-05-25T11:44:34;101509.91;;;25.83;100.00
51299;BME280;37382;45.192;9.790;2023-05-25T11:47:06;101499.16;;;26.36;100.00
51299;BME280;37382;45.192;9.790;2023-05-25T11:49:42;101506.22;;;26.73;100.00
51299;BME280;37382;45.192;9.790;2023-05-25T11:52:14;101498.94;;;26.22;100.00
51299;BME280;37382;45.192;9.790;2023-05-25T11:54:42;101497.66;;;26.49;100.00
51299;BME280;37382;45.192;9.790;2023-05-25T11:59:55;101485.44;;;26.45;100.00
51299;BME280;37382;45.192;9.790;2023-05-25T12:02:24;101484.75;;;26.69;100.00
51299;BME280;37382;45.192;9.790;2023-05-25T12:04:57;101491.09;;;26.85;100.00
51299;BME280;37382;45.192;9.790;2023-05-25T12:07:26;101486.63;;;27.52;100.00
51299;BME280;37382;45.192;9.790;2023-05-25T12:10:08;101484.38;;;28.08;100.00
51299;BME280;37382;45.192;9.790;2023-05-25T12:12:46;101472.56;;;27.87;100.00
51299;BME280;37382;45.192;9.790;2023-05-25T12:15:22;101476.09;;;27.44;100.00
51299;BME280;37382;45.192;9.790;2023-05-25T12:17:51;101483.94;;;27.42;99.58
51299;BME280;37382;45.192;9.790;2023-05-25T12:20:20;101473.03;;;28.18;99.44
51299;BME280;37382;45.192;9.790;2023-05-25T12:22:48;101479.63;;;28.09;92.06
51299;BME280;37382;45.192;9.790;2023-05-25T12:25:20;101473.94;;;27.90;93.11
51299;BME280;37382;45.192;9.790;2023-05-25T12:28:08;101473.44;;;28.12;93.78
51299;BME280;37382;45.192;9.790;2023-05-25T12:30:36;101465.81;;;28.36;92.76
51299;BME280;37382;45.192;9.790;2023-05-25T12:33:04;101469.91;;;28.25;94.78
51299;BME280;37382;45.192;9.790;2023-05-25T12:35:48;101462.81;;;27.84;93.72
51299;BME280;37382;45.192;9.790;2023-05-25T12:38:18;101458.53;;;27.92;94.85
51299;BME280;37382;45.192;9.790;2023-05-25T12:40:46;101458.06;;;27.85;96.23
51299;BME280;37382;45.192;9.790;2023-05-25T12:43:15;101459.31;;;28.41;91.07
51299;BME280;37382;45.192;9.790;2023-05-25T12:45:43;101451.81;;;27.93;94.09
51299;BME280;37382;45.192;9.790;2023-05-25T12:48:11;101449.75;;;28.66;88.74
51299;BME280;37382;45.192;9.790;2023-05-25T12:50:55;101449.72;;;28.47;87.23
51299;BME280;37382;45.192;9.790;2023-05-25T12:53:23;101449.47;;;28.68;86.08
51299;BME280;37382;45.192;9.790;2023-05-25T12:56:02;101446.97;;;29.51;86.62
51299;BME280;37382;45.192;9.790;2023-05-25T12:58:30;101446.72;;;29.01;82.23
51299;BME280;37382;45.192;9.790;2023-05-25T13:00:58;101455.38;;;28.66;84.05
51299;BME280;37382;45.192;9.790;2023-05-25T13:03:25;101446.44;;;29.16;81.05
51299;BME280;37382;45.192;9.790;2023-05-25T13:05:59;101450.31;;;28.25;88.15
51299;BME280;37382;45.192;9.790;2023-05-25T13:08:28;101454.41;;;27.84;84.23
51299;BME280;37382;45.192;9.790;2023-05-25T13:10:56;101441.81;;;28.73;90.55
51299;BME280;37382;45.192;9.790;2023-05-25T13:13:24;101443.81;;;28.49;84.98
51299;BME280;37382;45.192;9.790;2023-05-25T13:15:53;101447.69;;;28.34;83.47
51299;BME280;37382;45.192;9.790;2023-05-25T13:18:21;101435.59;;;28.38;83.80
51299;BME280;37382;45.192;9.790;2023-05-25T13:20:48;101433.56;;;29.15;79.81
51299;BME280;37382;45.192;9.790;2023-05-25T13:23:20;101427.75;;;29.12;79.98
51299;BME280;37382;45.192;9.790;2023-05-25T13:25:48;101420.69;;;30.03;74.48
51299;BME280;37382;45.192;9.790;2023-05-25T13:28:16;101426.16;;;29.38;77.79
51299;BME280;37382;45.192;9.790;2023-05-25T13:30:44;101426.72;;;29.54;74.73
51299;BME280;37382;45.192;9.790;2023-05-25T13:33:12;101428.59;;;30.14;75.10
51299;BME280;37382;45.192;9.790;2023-05-25T13:35:39;101424.94;;;29.72;73.17
51299;BME280;37382;45.192;9.790;2023-05-25T13:38:24;101441.09;;;29.34;75.98
51299;BME280;37382;45.192;9.790;2023-05-25T13:40:51;101434.50;;;29.43;73.59
51299;BME280;37382;45.192;9.790;2023-05-25T13:43:20;101439.84;;;29.87;73.79
51299;BME280;37382;45.192;9.790;2023-05-25T13:45:48;101434.81;;;29.56;73.10
51299;BME280;37382;45.192;9.790;2023-05-25T13:48:15;101440.34;;;29.28;72.05
51299;BME280;37382;45.192;9.790;2023-05-25T13:50:43;101433.91;;;30.02;71.61
51299;BME280;37382;45.192;9.790;2023-05-25T13:53:12;101423.22;;;30.55;65.18
51299;BME280;37382;45.192;9.790;2023-05-25T13:55:40;101429.47;;;30.38;68.13
51299;BME280;37382;45.192;9.790;2023-05-25T13:58:08;101427.03;;;29.67;67.64
51299;BME280;37382;45.192;9.790;2023-05-25T14:00:36;101433.09;;;29.27;67.52
51299;BME280;37382;45.192;9.790;2023-05-25T14:03:04;101423.41;;;30.08;70.62
51299;BME280;37382;45.192;9.790;2023-05-25T14:05:33;101427.94;;;30.17;65.13
51299;BME280;37382;45.192;9.790;2023-05-25T14:08:00;101423.19;;;29.76;63.35
51299;BME280;37382;45.192;9.790;2023-05-25T14:10:31;101413.19;;;30.26;67.04
51299;BME280;37382;45.192;9.790;2023-05-25T14:12:59;101410.69;;;30.24;64.57
51299;BME280;37382;45.192;9.790;2023-05-25T14:15:26;101411.47;;;30.39;64.81
51299;BME280;37382;45.192;9.790;2023-05-25T14:17:54;101407.00;;;29.87;63.63
51299;BME280;37382;45.192;9.790;2023-05-25T14:20:23;101405.94;;;29.08;63.13
51299;BME280;37382;45.192;9.790;2023-05-25T14:22:52;101400.72;;;29.02;65.01
51299;BME280;37382;45.192;9.790;2023-05-25T14:25:20;101393.69;;;29.93;66.25
51299;BME280;37382;45.192;9.790;2023-05-25T14:27:47;101393.31;;;30.22;64.21
51299;BME280;37382;45.192;9.790;2023-05-25T14:30:14;101387.41;;;30.60;62.07
51299;BME280;37382;45.192;9.790;2023-05-25T14:32:42;101385.63;;;30.28;63.37
51299;BME280;37382;45.192;9.790;2023-05-25T14:35:10;101390.66;;;30.17;62.14
51299;BME280;37382;45.192;9.790;2023-05-25T14:37:38;101393.88;;;30.61;62.57
51299;BME280;37382;45.192;9.790;2023-05-25T14:40:06;101401.13;;;30.84;59.78
51299;BME280;37382;45.192;9.790;2023-05-25T14:42:33;101399.97;;;31.31;59.43
51299;BME280;37382;45.192;9.790;2023-05-25T14:45:02;101410.09;;;31.40;59.36
51299;BME280;37382;45.192;9.790;2023-05-25T14:47:30;101417.06;;;31.12;58.50
51299;BME280;37382;45.192;9.790;2023-05-25T14:49:58;101420.72;;;29.28;61.44
51299;BME280;37382;45.192;9.790;2023-05-25T14:52:26;101429.28;;;29.51;60.12
51299;BME280;37382;45.192;9.790;2023-05-25T14:54:54;101426.72;;;28.88;64.54
51299;BME280;37382;45.192;9.790;2023-05-25T14:57:22;101430.00;;;28.38;61.50
51299;BME280;37382;45.192;9.790;2023-05-25T14:59:49;101429.47;;;28.55;62.73
51299;BME280;37382;45.192;9.790;2023-05-25T15:02:16;101428.44;;;29.36;62.50
51299;BME280;37382;45.192;9.790;2023-05-25T15:04:44;101429.84;;;29.20;63.43
51299;BME280;37382;45.192;9.790;2023-05-25T15:07:13;101424.09;;;28.40;66.22
51299;BME280;37382;45.192;9.790;2023-05-25T15:09:41;101434.44;;;28.39;65.16
51299;BME280;37382;45.192;9.790;2023-05-25T15:12:09;101434.84;;;28.71;64.64
51299;BME280;37382;45.192;9.790;2023-05-25T15:14:37;101432.56;;;29.25;64.48
51299;BME280;37382;45.192;9.790;2023-05-25T15:17:07;101435.13;;;29.68;61.21
51299;BME280;37382;45.192;9.790;2023-05-25T15:19:36;101426.53;;;30.57;59.54
51299;BME280;37382;45.192;9.790;2023-05-25T15:22:04;101433.25;;;31.69;58.12
51299;BME280;37382;45.192;9.790;2023-05-25T15:24:31;101420.69;;;32.59;54.49
51299;BME280;37382;45.192;9.790;2023-05-25T15:26:59;101433.59;;;32.60;54.95
51299;BME280;37382;45.192;9.790;2023-05-25T15:29:28;101428.81;;;31.45;54.87
51299;BME280;37382;45.192;9.790;2023-05-25T15:31:55;101430.69;;;29.95;58.80
51299;BME280;37382;45.192;9.790;2023-05-25T15:34:23;101429.06;;;29.33;61.53
51299;BME280;37382;45.192;9.790;2023-05-25T15:36:50;101438.53;;;29.37;62.41
51299;BME280;37382;45.192;9.790;2023-05-25T15:39:18;101435.81;;;28.99;65.08
51299;BME280;37382;45.192;9.790;2023-05-25T15:41:46;101427.13;;;29.61;62.24
51299;BME280;37382;45.192;9.790;2023-05-25T15:44:14;101436.50;;;29.98;63.65
51299;BME280;37382;45.192;9.790;2023-05-25T15:46:42;101435.97;;;29.83;64.44
51299;BME280;37382;45.192;9.790;2023-05-25T15:49:09;101436.09;;;30.56;61.07
51299;BME280;37382;45.192;9.790;2023-05-25T15:51:38;101434.06;;;30.33;59.76
51299;BME280;37382;45.192;9.790;2023-05-25T15:54:10;101435.59;;;29.89;60.19
51299;BME280;37382;45.192;9.790;2023-05-25T15:56:40;101436.75;;;29.41;61.58
51299;BME280;37382;45.192;9.790;2023-05-25T15:59:08;101433.31;;;29.31;61.92
51299;BME280;37382;45.192;9.790;2023-05-25T16:01:38;101432.06;;;29.37;62.51
51299;BME280;37382;45.192;9.790;2023-05-25T16:04:06;101433.22;;;28.46;65.17
51299;BME280;37382;45.192;9.790;2023-05-25T16:06:34;101432.09;;;28.47;65.83
51299;BME280;37382;45.192;9.790;2023-05-25T16:09:03;101429.13;;;27.95;67.45
51299;BME280;37382;45.192;9.790;2023-05-25T16:11:31;101437.09;;;28.31;68.44
51299;BME280;37382;45.192;9.790;2023-05-25T16:14:00;101425.94;;;28.07;68.99
51299;BME280;37382;45.192;9.790;2023-05-25T16:16:28;101432.53;;;27.92;71.61
51299;BME280;37382;45.192;9.790;2023-05-25T16:18:56;101425.38;;;27.27;71.19
51299;BME280;37382;45.192;9.790;2023-05-25T16:21:23;101431.59;;;27.19;75.31
51299;BME280;37382;45.192;9.790;2023-05-25T16:23:51;101425.22;;;27.47;76.37
51299;BME280;37382;45.192;9.790;2023-05-25T16:26:18;101435.13;;;27.00;75.59
51299;BME280;37382;45.192;9.790;2023-05-25T16:28:45;101436.97;;;27.10;78.76
51299;BME280;37382;45.192;9.790;2023-05-25T16:31:13;101431.22;;;27.30;79.52
51299;BME280;37382;45.192;9.790;2023-05-25T16:33:43;101442.84;;;27.13;81.95
51299;BME280;37382;45.192;9.790;2023-05-25T16:36:11;101437.53;;;27.12;88.71
51299;BME280;37382;45.192;9.790;2023-05-25T16:38:40;101436.91;;;27.49;85.15
51299;BME280;37382;45.192;9.790;2023-05-25T16:41:08;101428.13;;;27.61;81.12
51299;BME280;37382;45.192;9.790;2023-05-25T16:43:36;101429.84;;;27.57;81.15
51299;BME280;37382;45.192;9.790;2023-05-25T16:46:04;101434.66;;;27.76;76.82
51299;BME280;37382;45.192;9.790;2023-05-25T16:48:32;101433.53;;;27.77;76.83
51299;BME280;37382;45.192;9.790;2023-05-25T16:51:00;101425.94;;;27.82;78.46
51299;BME280;37382;45.192;9.790;2023-05-25T16:53:28;101424.78;;;28.08;76.96
51299;BME280;37382;45.192;9.790;2023-05-25T16:55:56;101428.31;;;28.56;75.42
51299;BME280;37382;45.192;9.790;2023-05-25T16:58:24;101425.53;;;29.41;70.93
51299;BME280;37382;45.192;9.790;2023-05-25T17:00:52;101408.91;;;30.65;65.79
51299;BME280;37382;45.192;9.790;2023-05-25T17:03:19;101413.00;;;30.81;65.07
51299;BME280;37382;45.192;9.790;2023-05-25T17:05:47;101407.81;;;31.91;59.20
51299;BME280;37382;45.192;9.790;2023-05-25T17:08:15;101407.09;;;32.52;58.51
51299;BME280;37382;45.192;9.790;2023-05-25T17:10:46;101393.66;;;34.60;53.46
51299;BME280;37382;45.192;9.790;2023-05-25T17:13:13;101400.50;;;36.37;49.17
51299;BME280;37382;45.192;9.790;2023-05-25T17:15:41;101411.78;;;38.17;44.20
51299;BME280;37382;45.192;9.790;2023-05-25T17:18:10;101404.84;;;38.54;43.01
51299;BME280;37382;45.192;9.790;2023-05-25T17:20:38;101409.34;;;38.35;41.68
51299;BME280;37382;45.192;9.790;2023-05-25T17:23:06;101409.88;;;38.60;40.23
51299;BME280;37382;45.192;9.790;2023-05-25T17:25:34;101410.84;;;37.46;41.07